createdAt,value
2022-10-11T00:00:14.125Z,7.80
2022-10-11T00:06:59.640Z,7.93
2022-10-11T00:13:47.645Z,7.50
2022-10-11T00:20:33.061Z,7.75
2022-10-11T00:27:18.529Z,7.90
2022-10-11T00:34:06.482Z,7.43
2022-10-11T00:40:51.812Z,8.32
2022-10-11T00:47:37.202Z,8.40
2022-10-11T00:54:29.910Z,8.03
2022-10-11T01:01:15.722Z,8.55
2022-10-11T01:08:03.604Z,8.27
2022-10-11T01:15:12.000Z,8.50
2022-10-11T01:22:11.967Z,9.60
2022-10-11T01:29:11.638Z,9.52
2022-10-11T01:36:09.843Z,9.75
2022-10-11T01:42:57.319Z,9.70
2022-10-11T01:49:42.824Z,9.93
2022-10-11T01:57:03.472Z,11.03
2022-10-11T02:03:57.409Z,10.98
2022-10-11T02:10:49.299Z,10.57
2022-10-11T02:17:42.244Z,8.73
2022-10-11T02:24:33.376Z,6.93
2022-10-11T02:31:21.440Z,6.30
2022-10-11T02:38:17.771Z,6.00
2022-10-11T03:05:51.789Z,4.18
2022-10-11T03:12:37.502Z,4.50
2022-10-11T03:19:22.983Z,4.40
2022-10-11T03:26:10.995Z,5.00
2022-10-11T03:32:56.427Z,4.47
2022-10-11T03:39:41.972Z,3.80
2022-10-11T03:46:29.909Z,4.13
2022-10-11T03:53:15.577Z,3.85
2022-10-11T04:00:00.913Z,3.50
2022-10-11T04:06:53.597Z,4.35
2022-10-11T04:13:39.684Z,4.07
2022-10-11T04:20:25.133Z,4.45
2022-10-11T04:27:13.115Z,4.75
2022-10-11T04:33:58.429Z,5.90
2022-10-11T04:40:43.761Z,7.38
2022-10-11T04:47:31.793Z,16.40
2022-10-11T04:54:17.781Z,8.52
2022-10-11T05:01:04.808Z,5.60
2022-10-11T05:07:52.764Z,5.72
2022-10-11T05:14:38.334Z,4.80
2022-10-11T05:21:26.595Z,5.53
2022-10-11T05:28:14.607Z,5.40
2022-10-11T05:35:00.431Z,4.90
2022-10-11T05:41:47.576Z,5.10
2022-10-11T05:48:36.106Z,5.40
2022-10-11T05:55:21.435Z,6.28
2022-10-11T06:02:06.917Z,5.75
2022-10-11T06:08:54.969Z,6.13
2022-10-11T06:15:42.823Z,5.00
2022-10-11T06:22:28.163Z,5.95
2022-10-11T06:29:16.074Z,5.70
2022-10-11T06:36:02.872Z,5.60
2022-10-11T06:42:51.745Z,6.35
2022-10-11T06:49:39.884Z,5.40
2022-10-11T06:56:25.627Z,5.53
2022-10-11T07:03:11.766Z,5.60
2022-10-11T07:09:59.843Z,6.05
2022-10-11T07:16:45.168Z,5.70
2022-10-11T07:23:30.476Z,7.28
2022-10-11T07:30:18.674Z,6.47
2022-10-11T07:37:06.867Z,5.35
2022-10-11T07:43:52.313Z,5.35
2022-10-11T07:50:40.669Z,6.20
2022-10-11T07:57:26.080Z,5.32
2022-10-11T08:04:12.525Z,5.80
2022-10-11T08:11:00.750Z,5.30
2022-10-11T08:17:46.356Z,4.63
2022-10-11T08:24:37.326Z,5.15
2022-10-11T08:31:26.530Z,4.93
2022-10-11T08:38:11.945Z,4.90
2022-10-11T08:45:10.979Z,5.35
2022-10-11T08:52:04.714Z,5.03
2022-10-11T08:58:57.651Z,5.40
2022-10-11T09:06:00.935Z,4.78
2022-10-11T09:12:59.988Z,4.90
2022-10-11T09:20:09.754Z,5.18
2022-10-11T09:27:00.943Z,5.35
2022-10-11T09:33:52.443Z,5.03
2022-10-11T09:40:52.934Z,5.65
2022-10-11T09:47:38.337Z,5.68
2022-10-11T09:54:42.044Z,5.40
2022-10-11T10:01:30.917Z,5.30
2022-10-11T10:08:27.646Z,5.15
2022-10-11T10:15:23.125Z,4.40
2022-10-11T10:22:08.821Z,4.57
2022-10-11T10:29:05.948Z,4.63
2022-10-11T10:35:58.256Z,4.28
2022-10-11T10:42:43.853Z,4.38
2022-10-11T10:49:54.749Z,4.50
2022-10-11T10:56:50.900Z,4.55
2022-10-11T11:03:44.685Z,4.65
2022-10-11T11:10:37.396Z,4.40
2022-10-11T11:17:39.107Z,4.00
2022-10-11T11:24:49.349Z,4.10
2022-10-11T11:32:11.600Z,4.07
2022-10-11T11:39:05.257Z,4.75
2022-10-11T11:45:58.173Z,4.20
2022-10-11T11:52:48.612Z,3.72
2022-10-11T11:59:43.507Z,4.70
2022-10-11T12:06:33.896Z,3.63
2022-10-11T12:13:29.720Z,3.40
2022-10-11T12:20:29.453Z,3.95
2022-10-11T12:27:40.034Z,3.50
2022-10-11T12:34:38.618Z,3.80
2022-10-11T12:41:53.802Z,3.95
2022-10-11T12:48:50.782Z,4.03
2022-10-11T12:55:52.012Z,3.90
2022-10-11T13:02:45.211Z,4.03
2022-10-11T13:09:34.428Z,3.90
2022-10-11T13:16:23.857Z,4.13
2022-10-11T13:23:27.124Z,4.28
2022-10-11T13:30:21.735Z,4.20
2022-10-11T13:37:07.868Z,4.70
2022-10-11T13:50:46.171Z,3.90
2022-10-11T13:57:41.161Z,4.38
2022-10-11T14:04:30.228Z,4.07
2022-10-11T14:11:17.420Z,4.80
2022-10-11T14:18:05.485Z,4.40
2022-10-11T14:24:53.483Z,4.25
2022-10-11T14:31:41.676Z,3.90
2022-10-11T14:38:27.521Z,4.00
2022-10-11T14:45:15.750Z,4.83
2022-10-11T14:52:02.320Z,3.75
2022-10-11T14:58:48.053Z,4.30
2022-10-11T15:05:36.679Z,3.92
2022-10-11T15:12:22.294Z,3.70
2022-10-11T15:19:07.863Z,4.43
2022-10-11T15:25:55.821Z,4.10
2022-10-11T15:32:41.197Z,3.72
2022-10-11T15:39:31.889Z,3.60
2022-10-11T15:46:23.194Z,3.53
2022-10-11T15:53:11.738Z,3.28
2022-10-11T15:59:57.071Z,3.10
2022-10-11T16:06:45.188Z,3.60
2022-10-11T16:13:30.605Z,3.80
2022-10-11T16:20:18.699Z,4.00
2022-10-11T16:27:06.745Z,4.20
2022-10-11T16:33:53.656Z,4.10
2022-10-11T16:40:41.115Z,6.20
2022-10-11T16:47:29.185Z,6.75
2022-10-11T16:54:19.983Z,4.18
2022-10-11T17:01:06.570Z,4.38
2022-10-11T17:14:40.797Z,4.93
2022-10-11T17:21:26.431Z,8.88
2022-10-11T17:28:15.108Z,5.30
2022-10-11T17:35:02.900Z,6.85
2022-10-11T17:41:49.324Z,7.00
2022-10-11T17:48:39.410Z,5.95
2022-10-11T17:55:24.845Z,4.90
2022-10-11T18:02:12.084Z,5.50
2022-10-11T18:09:03.453Z,5.45
2022-10-11T18:15:53.387Z,5.95
2022-10-11T18:22:39.112Z,6.47
2022-10-11T18:29:27.109Z,6.55
2022-10-11T18:36:13.797Z,6.30
2022-10-11T18:42:59.719Z,6.40
2022-10-11T18:49:47.948Z,6.23
2022-10-11T18:56:37.016Z,6.25
2022-10-11T19:03:22.556Z,6.40
2022-10-11T19:10:11.957Z,6.00
2022-10-11T19:16:59.016Z,6.53
2022-10-11T19:23:46.921Z,5.97
2022-10-11T19:30:35.440Z,5.82
2022-10-11T19:37:21.525Z,5.53
2022-10-11T19:44:07.654Z,5.70
2022-10-11T19:50:55.700Z,6.15
2022-10-11T19:57:41.064Z,6.65
2022-10-11T20:04:51.567Z,6.15
2022-10-11T20:11:34.476Z,6.25
2022-10-11T20:18:19.856Z,6.82
2022-10-11T20:25:05.328Z,6.70
2022-10-11T20:31:53.403Z,6.35
2022-10-11T20:38:41.816Z,6.70
2022-10-11T20:45:27.205Z,6.63
2022-10-11T20:52:15.172Z,6.80
2022-10-11T20:59:01.910Z,7.00
2022-10-11T21:12:35.723Z,7.05
2022-10-11T21:19:21.299Z,6.70
2022-10-11T21:26:08.716Z,9.52
2022-10-11T21:32:57.652Z,7.15
2022-10-11T21:39:43.005Z,6.50
2022-10-11T21:53:39.135Z,6.15
2022-10-11T22:00:24.818Z,7.05
2022-10-11T22:07:10.177Z,7.00
2022-10-11T22:13:58.084Z,6.53
2022-10-11T22:20:43.478Z,6.90
2022-10-11T22:27:28.956Z,6.65
2022-10-11T22:34:16.977Z,6.55
2022-10-11T22:41:02.740Z,7.00
2022-10-11T22:47:48.109Z,7.03
2022-10-11T22:54:36.081Z,6.30
2022-10-11T23:01:21.384Z,6.95
2022-10-11T23:08:06.800Z,6.60
2022-10-11T23:14:54.874Z,8.55
2022-10-11T23:21:40.221Z,7.68
2022-10-11T23:28:25.570Z,9.20
2022-10-11T23:35:13.677Z,10.60
2022-10-11T23:41:59.468Z,8.38
2022-10-11T23:48:44.966Z,6.97
2022-10-11T23:55:32.911Z,7.30
